DEMNG SBPA-SBGL
Flight info
| Callsign | DEMNG |
|---|---|
| Flight time | N/A |
| Altitude | 7000 |
| Route | ANLER DCT SULPI DCT EVPIB DCT FEITO DCT KOLBI |
| Aircraft | PA24/L-SDGRY/S |
Departure
| Time | N/A |
|---|---|
| Airport | Porto Alegre-Salgado Filho International Airport (SBPA) |
Arrival
| Time | 2026-04-30 14:41 |
|---|---|
| Airport | Rio Galeão – Tom Jobim International Airport (SBGL) |
| Time | Latitude | Longitude | Altitude | Speed | Heading |
|---|---|---|---|---|---|
| 2026-04-30 13:28 | -24.68718 | -45.14277 | 7013 ft | 168 kts | 30° |
| 2026-04-30 13:28 | -24.67756 | -45.13543 | 7013 ft | 168 kts | 30° |
| 2026-04-30 13:29 | -24.65835 | -45.12077 | 7010 ft | 168 kts | 30° |
| 2026-04-30 13:29 | -24.63909 | -45.10612 | 7010 ft | 168 kts | 30° |
| 2026-04-30 13:30 | -24.61022 | -45.08412 | 7009 ft | 168 kts | 30° |
| 2026-04-30 13:31 | -24.59099 | -45.06958 | 7011 ft | 167 kts | 30° |
| 2026-04-30 13:31 | -24.56227 | -45.04774 | 7010 ft | 167 kts | 31° |
| 2026-04-30 13:32 | -24.54312 | -45.03313 | 7009 ft | 167 kts | 31° |
| 2026-04-30 13:32 | -24.52409 | -45.01865 | 7010 ft | 168 kts | 30° |
| 2026-04-30 13:33 | -24.50492 | -45.00409 | 7010 ft | 168 kts | 30° |
| 2026-04-30 13:33 | -24.48574 | -44.98953 | 7010 ft | 167 kts | 30° |
| 2026-04-30 13:34 | -24.47616 | -44.98227 | 7010 ft | 168 kts | 31° |
| 2026-04-30 13:34 | -24.44741 | -44.96040 | 7010 ft | 168 kts | 30° |
| 2026-04-30 13:35 | -24.43779 | -44.95311 | 7010 ft | 168 kts | 30° |
| 2026-04-30 13:35 | -24.41857 | -44.93856 | 7010 ft | 168 kts | 30° |
| 2026-04-30 13:36 | -24.39933 | -44.92400 | 7011 ft | 168 kts | 30° |
| 2026-04-30 13:36 | -24.38971 | -44.91670 | 7010 ft | 168 kts | 30° |
| 2026-04-30 13:36 | -24.37050 | -44.90227 | 7008 ft | 166 kts | 31° |
| 2026-04-30 13:37 | -24.36110 | -44.89517 | 7008 ft | 166 kts | 31° |
| 2026-04-30 13:37 | -24.34206 | -44.88069 | 7007 ft | 166 kts | 31° |
| 2026-04-30 13:38 | -24.32303 | -44.86622 | 7010 ft | 166 kts | 31° |
| 2026-04-30 13:38 | -24.31350 | -44.85898 | 7010 ft | 167 kts | 31° |
| 2026-04-30 13:38 | -24.29442 | -44.84456 | 7009 ft | 167 kts | 31° |
| 2026-04-30 13:39 | -24.27534 | -44.83013 | 7007 ft | 166 kts | 31° |
| 2026-04-30 13:39 | -24.25627 | -44.81570 | 7007 ft | 167 kts | 31° |
| 2026-04-30 13:40 | -24.24672 | -44.80849 | 7011 ft | 167 kts | 31° |
| 2026-04-30 13:40 | -24.23717 | -44.80128 | 7007 ft | 167 kts | 31° |
| 2026-04-30 13:40 | -24.22763 | -44.79405 | 7007 ft | 166 kts | 31° |
| 2026-04-30 13:40 | -24.21810 | -44.78684 | 7007 ft | 166 kts | 31° |
| 2026-04-30 13:41 | -24.20856 | -44.77966 | 7005 ft | 166 kts | 31° |
| 2026-04-30 13:41 | -24.19914 | -44.77259 | 7002 ft | 166 kts | 31° |
| 2026-04-30 13:41 | -24.18960 | -44.76542 | 7004 ft | 166 kts | 31° |
| 2026-04-30 13:41 | -24.18007 | -44.75823 | 7004 ft | 166 kts | 31° |
| 2026-04-30 13:42 | -24.17056 | -44.75102 | 7007 ft | 166 kts | 31° |
| 2026-04-30 13:42 | -24.16103 | -44.74382 | 7008 ft | 166 kts | 31° |
| 2026-04-30 13:42 | -24.14197 | -44.72945 | 7007 ft | 166 kts | 31° |
| 2026-04-30 13:43 | -24.13244 | -44.72225 | 7006 ft | 167 kts | 31° |
| 2026-04-30 13:43 | -24.12289 | -44.71505 | 7005 ft | 167 kts | 31° |
| 2026-04-30 13:43 | -24.11358 | -44.70755 | 7005 ft | 166 kts | 39° |
| 2026-04-30 13:43 | -24.10660 | -44.69747 | 7005 ft | 168 kts | 61° |
| 2026-04-30 13:44 | -24.10146 | -44.68591 | 7006 ft | 169 kts | 62° |
| 2026-04-30 13:44 | -24.09613 | -44.67437 | 7006 ft | 170 kts | 62° |
| 2026-04-30 13:44 | -24.09087 | -44.66280 | 7007 ft | 170 kts | 62° |
| 2026-04-30 13:44 | -24.08564 | -44.65120 | 7007 ft | 170 kts | 62° |
| 2026-04-30 13:45 | -24.07524 | -44.62812 | 7005 ft | 170 kts | 62° |
| 2026-04-30 13:45 | -24.07000 | -44.61651 | 7005 ft | 170 kts | 62° |
| 2026-04-30 13:45 | -24.06475 | -44.60490 | 7004 ft | 170 kts | 62° |
| 2026-04-30 13:46 | -24.05950 | -44.59329 | 7004 ft | 170 kts | 62° |
| 2026-04-30 13:46 | -24.05424 | -44.58169 | 7004 ft | 170 kts | 62° |
| 2026-04-30 13:46 | -24.04899 | -44.57011 | 7004 ft | 170 kts | 62° |
| 2026-04-30 13:46 | -24.04373 | -44.55853 | 7004 ft | 170 kts | 62° |
| 2026-04-30 13:47 | -24.03848 | -44.54694 | 7005 ft | 170 kts | 62° |
| 2026-04-30 13:47 | -24.03323 | -44.53536 | 7004 ft | 170 kts | 62° |
| 2026-04-30 13:47 | -24.02798 | -44.52379 | 7004 ft | 170 kts | 62° |
| 2026-04-30 13:47 | -24.02272 | -44.51222 | 7004 ft | 170 kts | 62° |
| 2026-04-30 13:48 | -24.01746 | -44.50064 | 7004 ft | 170 kts | 62° |
| 2026-04-30 13:48 | -24.01220 | -44.48907 | 7004 ft | 170 kts | 62° |
| 2026-04-30 13:48 | -24.00695 | -44.47749 | 7005 ft | 170 kts | 62° |
| 2026-04-30 13:48 | -24.00169 | -44.46590 | 7004 ft | 170 kts | 62° |
| 2026-04-30 13:49 | -23.99644 | -44.45434 | 7006 ft | 170 kts | 62° |
| 2026-04-30 13:49 | -23.99117 | -44.44276 | 7005 ft | 170 kts | 62° |
| 2026-04-30 13:49 | -23.98591 | -44.43120 | 7005 ft | 170 kts | 62° |
| 2026-04-30 13:49 | -23.98065 | -44.41964 | 7004 ft | 170 kts | 62° |
| 2026-04-30 13:50 | -23.97539 | -44.40812 | 7004 ft | 169 kts | 62° |
| 2026-04-30 13:50 | -23.96497 | -44.38518 | 7004 ft | 170 kts | 62° |
| 2026-04-30 13:50 | -23.95972 | -44.37365 | 7004 ft | 169 kts | 62° |
| 2026-04-30 13:51 | -23.95446 | -44.36212 | 7002 ft | 170 kts | 62° |
| 2026-04-30 13:51 | -23.94922 | -44.35058 | 7004 ft | 169 kts | 62° |
| 2026-04-30 13:51 | -23.94395 | -44.33904 | 7004 ft | 170 kts | 62° |
| 2026-04-30 13:51 | -23.93868 | -44.32750 | 7004 ft | 170 kts | 62° |
| 2026-04-30 13:52 | -23.93342 | -44.31597 | 7003 ft | 170 kts | 62° |
| 2026-04-30 13:52 | -23.92815 | -44.30442 | 7004 ft | 170 kts | 62° |
| 2026-04-30 13:52 | -23.92289 | -44.29295 | 7003 ft | 168 kts | 62° |
| 2026-04-30 13:52 | -23.91768 | -44.28153 | 7004 ft | 168 kts | 62° |
| 2026-04-30 13:53 | -23.91248 | -44.27009 | 7002 ft | 168 kts | 62° |
| 2026-04-30 13:53 | -23.90725 | -44.25864 | 7001 ft | 168 kts | 62° |
| 2026-04-30 13:53 | -23.90204 | -44.24720 | 7002 ft | 168 kts | 62° |
| 2026-04-30 13:53 | -23.89682 | -44.23573 | 7001 ft | 168 kts | 62° |
| 2026-04-30 13:54 | -23.89170 | -44.22424 | 7006 ft | 168 kts | 63° |
| 2026-04-30 13:54 | -23.88663 | -44.21281 | 7004 ft | 167 kts | 63° |
| 2026-04-30 13:54 | -23.88160 | -44.20141 | 7004 ft | 167 kts | 63° |
| 2026-04-30 13:54 | -23.87657 | -44.19002 | 7004 ft | 167 kts | 63° |
| 2026-04-30 13:55 | -23.87153 | -44.17863 | 7002 ft | 166 kts | 63° |
| 2026-04-30 13:55 | -23.86650 | -44.16725 | 7002 ft | 166 kts | 63° |
| 2026-04-30 13:55 | -23.86145 | -44.15586 | 7002 ft | 166 kts | 63° |
| 2026-04-30 13:55 | -23.85640 | -44.14449 | 7002 ft | 167 kts | 63° |
| 2026-04-30 13:56 | -23.85135 | -44.13310 | 7004 ft | 166 kts | 63° |
| 2026-04-30 13:56 | -23.84628 | -44.12171 | 7004 ft | 167 kts | 63° |
| 2026-04-30 13:56 | -23.84122 | -44.11032 | 7005 ft | 167 kts | 63° |
| 2026-04-30 13:56 | -23.83617 | -44.09893 | 7005 ft | 167 kts | 63° |
| 2026-04-30 13:57 | -23.83109 | -44.08754 | 7002 ft | 167 kts | 63° |
| 2026-04-30 13:57 | -23.82609 | -44.07628 | 7002 ft | 167 kts | 63° |
| 2026-04-30 13:57 | -23.82104 | -44.06490 | 7002 ft | 167 kts | 63° |
| 2026-04-30 13:57 | -23.81597 | -44.05352 | 7001 ft | 167 kts | 63° |
| 2026-04-30 13:58 | -23.81036 | -44.04249 | 7005 ft | 166 kts | 49° |
| 2026-04-30 13:58 | -23.78954 | -44.03467 | 7003 ft | 162 kts | 1° |
| 2026-04-30 13:58 | -23.77825 | -44.03409 | 7003 ft | 162 kts | 0° |
| 2026-04-30 13:59 | -23.76697 | -44.03358 | 7001 ft | 162 kts | 0° |
| 2026-04-30 13:59 | -23.75569 | -44.03306 | 7001 ft | 162 kts | 0° |
| 2026-04-30 13:59 | -23.74445 | -44.03248 | 7002 ft | 162 kts | 1° |
| 2026-04-30 13:59 | -23.73318 | -44.03185 | 7001 ft | 162 kts | 1° |
| 2026-04-30 14:00 | -23.72192 | -44.03119 | 7003 ft | 162 kts | 1° |
| 2026-04-30 14:00 | -23.69941 | -44.02980 | 7002 ft | 162 kts | 1° |
| 2026-04-30 14:00 | -23.68816 | -44.02908 | 7001 ft | 162 kts | 1° |
| 2026-04-30 14:01 | -23.67690 | -44.02841 | 7000 ft | 162 kts | 1° |
| 2026-04-30 14:01 | -23.66565 | -44.02769 | 6999 ft | 162 kts | 1° |
| 2026-04-30 14:01 | -23.65439 | -44.02696 | 6999 ft | 162 kts | 1° |
| 2026-04-30 14:01 | -23.64313 | -44.02622 | 6999 ft | 162 kts | 1° |
| 2026-04-30 14:02 | -23.63185 | -44.02549 | 6999 ft | 162 kts | 1° |
| 2026-04-30 14:02 | -23.62059 | -44.02478 | 6999 ft | 162 kts | 1° |
| 2026-04-30 14:02 | -23.60947 | -44.02408 | 6999 ft | 162 kts | 1° |
| 2026-04-30 14:02 | -23.59805 | -44.02336 | 6999 ft | 162 kts | 1° |
| 2026-04-30 14:03 | -23.58695 | -44.02266 | 6999 ft | 162 kts | 1° |
| 2026-04-30 14:03 | -23.57569 | -44.02194 | 6999 ft | 162 kts | 1° |
| 2026-04-30 14:03 | -23.56442 | -44.02120 | 6999 ft | 162 kts | 1° |
| 2026-04-30 14:03 | -23.55316 | -44.02047 | 6999 ft | 162 kts | 1° |
| 2026-04-30 14:04 | -23.54191 | -44.01975 | 6999 ft | 162 kts | 1° |
| 2026-04-30 14:04 | -23.53065 | -44.01904 | 6999 ft | 162 kts | 1° |
| 2026-04-30 14:04 | -23.51937 | -44.01832 | 6999 ft | 162 kts | 1° |
| 2026-04-30 14:04 | -23.50811 | -44.01760 | 6999 ft | 162 kts | 1° |
| 2026-04-30 14:05 | -23.49683 | -44.01687 | 6997 ft | 162 kts | 1° |
| 2026-04-30 14:05 | -23.48556 | -44.01615 | 6997 ft | 162 kts | 1° |
| 2026-04-30 14:05 | -23.47430 | -44.01544 | 6996 ft | 162 kts | 1° |
| 2026-04-30 14:05 | -23.46304 | -44.01473 | 6997 ft | 162 kts | 1° |
| 2026-04-30 14:06 | -23.45179 | -44.01401 | 6999 ft | 162 kts | 1° |
| 2026-04-30 14:06 | -23.43307 | -44.01283 | 6999 ft | 162 kts | 1° |
| 2026-04-30 14:07 | -23.41051 | -44.01140 | 6996 ft | 162 kts | 1° |
| 2026-04-30 14:07 | -23.39926 | -44.01069 | 6996 ft | 162 kts | 1° |
| 2026-04-30 14:07 | -23.38800 | -44.00999 | 6996 ft | 162 kts | 1° |
| 2026-04-30 14:08 | -23.36548 | -44.00856 | 6994 ft | 162 kts | 1° |
| 2026-04-30 14:08 | -23.35422 | -44.00786 | 6996 ft | 162 kts | 1° |
| 2026-04-30 14:08 | -23.33161 | -44.00646 | 6996 ft | 163 kts | 1° |
| 2026-04-30 14:09 | -23.32029 | -44.00573 | 6996 ft | 163 kts | 1° |
| 2026-04-30 14:09 | -23.30895 | -44.00501 | 6996 ft | 163 kts | 1° |
| 2026-04-30 14:09 | -23.28627 | -44.00357 | 6996 ft | 163 kts | 1° |
| 2026-04-30 14:10 | -23.27495 | -44.00286 | 6998 ft | 163 kts | 1° |
| 2026-04-30 14:10 | -23.26361 | -44.00214 | 6996 ft | 163 kts | 1° |
| 2026-04-30 14:10 | -23.25229 | -44.00144 | 6996 ft | 163 kts | 1° |
| 2026-04-30 14:10 | -23.24096 | -44.00072 | 6996 ft | 163 kts | 1° |
| 2026-04-30 14:11 | -23.22964 | -44.00000 | 6996 ft | 163 kts | 1° |
| 2026-04-30 14:11 | -23.21831 | -43.99930 | 6996 ft | 163 kts | 1° |
| 2026-04-30 14:11 | -23.20698 | -43.99859 | 6996 ft | 163 kts | 1° |
| 2026-04-30 14:11 | -23.19565 | -43.99788 | 6997 ft | 163 kts | 1° |
| 2026-04-30 14:12 | -23.18432 | -43.99716 | 7009 ft | 160 kts | 1° |
| 2026-04-30 14:12 | -23.17369 | -43.99650 | 6962 ft | 151 kts | 1° |
| 2026-04-30 14:12 | -23.16272 | -43.99585 | 6633 ft | 162 kts | 1° |
| 2026-04-30 14:12 | -23.15179 | -43.99518 | 6506 ft | 153 kts | 1° |
| 2026-04-30 14:13 | -23.14121 | -43.99453 | 6210 ft | 157 kts | 1° |
| 2026-04-30 14:13 | -23.13030 | -43.99387 | 5926 ft | 156 kts | 1° |
| 2026-04-30 14:13 | -23.11961 | -43.99318 | 5695 ft | 153 kts | 2° |
| 2026-04-30 14:13 | -23.10890 | -43.99249 | 5403 ft | 155 kts | 2° |
| 2026-04-30 14:14 | -23.09817 | -43.99177 | 5212 ft | 152 kts | 2° |
| 2026-04-30 14:14 | -23.08782 | -43.99112 | 4984 ft | 153 kts | 2° |
| 2026-04-30 14:14 | -23.07732 | -43.99044 | 4792 ft | 150 kts | 1° |
| 2026-04-30 14:14 | -23.06691 | -43.98980 | 4579 ft | 150 kts | 2° |
| 2026-04-30 14:15 | -23.05651 | -43.98917 | 4380 ft | 149 kts | 2° |
| 2026-04-30 14:15 | -23.04619 | -43.98851 | 4184 ft | 148 kts | 2° |
| 2026-04-30 14:15 | -23.03588 | -43.98779 | 3981 ft | 148 kts | 3° |
| 2026-04-30 14:15 | -23.02636 | -43.98351 | 3631 ft | 157 kts | 40° |
| 2026-04-30 14:16 | -23.01915 | -43.97492 | 3548 ft | 146 kts | 47° |
| 2026-04-30 14:16 | -23.01247 | -43.96691 | 3390 ft | 146 kts | 46° |
| 2026-04-30 14:16 | -23.00533 | -43.95859 | 3119 ft | 151 kts | 46° |
| 2026-04-30 14:16 | -22.99844 | -43.95049 | 3033 ft | 143 kts | 46° |
| 2026-04-30 14:17 | -22.99160 | -43.94239 | 2788 ft | 148 kts | 46° |
| 2026-04-30 14:17 | -22.98462 | -43.93412 | 2760 ft | 146 kts | 46° |
| 2026-04-30 14:17 | -22.97806 | -43.92636 | 2989 ft | 134 kts | 46° |
| 2026-04-30 14:17 | -22.97175 | -43.91874 | 3018 ft | 142 kts | 53° |
| 2026-04-30 14:18 | -22.96749 | -43.90883 | 3034 ft | 148 kts | 68° |
| 2026-04-30 14:18 | -22.96494 | -43.89791 | 3036 ft | 152 kts | 77° |
| 2026-04-30 14:18 | -22.96048 | -43.87515 | 3025 ft | 156 kts | 77° |
| 2026-04-30 14:19 | -22.95596 | -43.85203 | 3018 ft | 157 kts | 79° |
| 2026-04-30 14:19 | -22.95772 | -43.84053 | 3017 ft | 158 kts | 115° |
| 2026-04-30 14:19 | -22.96258 | -43.82979 | 2990 ft | 159 kts | 115° |
| 2026-04-30 14:20 | -22.96754 | -43.81904 | 3003 ft | 158 kts | 116° |
| 2026-04-30 14:20 | -22.97254 | -43.80840 | 3002 ft | 158 kts | 116° |
| 2026-04-30 14:20 | -22.98254 | -43.78719 | 3009 ft | 157 kts | 116° |
| 2026-04-30 14:21 | -22.98755 | -43.77655 | 3011 ft | 159 kts | 116° |
| 2026-04-30 14:21 | -22.99268 | -43.76587 | 3012 ft | 159 kts | 116° |
| 2026-04-30 14:21 | -23.00280 | -43.74454 | 3013 ft | 159 kts | 116° |
| 2026-04-30 14:22 | -23.00782 | -43.73389 | 3012 ft | 158 kts | 116° |
| 2026-04-30 14:22 | -23.01532 | -43.71142 | 3012 ft | 159 kts | 107° |
| 2026-04-30 14:22 | -23.01881 | -43.70005 | 3011 ft | 159 kts | 107° |
| 2026-04-30 14:23 | -23.02293 | -43.67680 | 3014 ft | 158 kts | 97° |
| 2026-04-30 14:23 | -23.02615 | -43.65333 | 3014 ft | 158 kts | 97° |
| 2026-04-30 14:24 | -23.02898 | -43.62974 | 3013 ft | 157 kts | 92° |
| 2026-04-30 14:24 | -23.02957 | -43.61788 | 3019 ft | 157 kts | 92° |
| 2026-04-30 14:25 | -23.03078 | -43.59438 | 3012 ft | 154 kts | 92° |
| 2026-04-30 14:25 | -23.03202 | -43.57092 | 3022 ft | 157 kts | 92° |
| 2026-04-30 14:26 | -23.03334 | -43.54735 | 3020 ft | 157 kts | 92° |
| 2026-04-30 14:26 | -23.03412 | -43.53561 | 3018 ft | 155 kts | 91° |
| 2026-04-30 14:26 | -23.03553 | -43.51236 | 3014 ft | 154 kts | 93° |
| 2026-04-30 14:27 | -23.03620 | -43.50074 | 3016 ft | 154 kts | 91° |
| 2026-04-30 14:27 | -23.03645 | -43.48896 | 3017 ft | 159 kts | 83° |
| 2026-04-30 14:27 | -23.03513 | -43.47711 | 3023 ft | 158 kts | 81° |
| 2026-04-30 14:28 | -23.03235 | -43.45341 | 3014 ft | 158 kts | 81° |
| 2026-04-30 14:28 | -23.03114 | -43.44160 | 3013 ft | 157 kts | 81° |
| 2026-04-30 14:28 | -23.02978 | -43.42995 | 3011 ft | 157 kts | 81° |
| 2026-04-30 14:28 | -23.02827 | -43.41820 | 3007 ft | 157 kts | 81° |
| 2026-04-30 14:29 | -23.02521 | -43.39471 | 3009 ft | 158 kts | 81° |
| 2026-04-30 14:29 | -23.02263 | -43.37517 | 3010 ft | 157 kts | 81° |
| 2026-04-30 14:30 | -23.01840 | -43.33601 | 3010 ft | 157 kts | 87° |
| 2026-04-30 14:31 | -23.01761 | -43.31236 | 3012 ft | 157 kts | 87° |
| 2026-04-30 14:31 | -23.01677 | -43.28873 | 3012 ft | 157 kts | 87° |
| 2026-04-30 14:31 | -23.01630 | -43.27685 | 3012 ft | 158 kts | 86° |
| 2026-04-30 14:32 | -23.01090 | -43.25408 | 3014 ft | 156 kts | 63° |
| 2026-04-30 14:32 | -23.00500 | -43.24422 | 3015 ft | 156 kts | 50° |
| 2026-04-30 14:32 | -22.99775 | -43.23551 | 2986 ft | 155 kts | 46° |
| 2026-04-30 14:33 | -22.98981 | -43.22770 | 2986 ft | 154 kts | 33° |
| 2026-04-30 14:33 | -22.97181 | -43.21453 | 2988 ft | 157 kts | 33° |
| 2026-04-30 14:33 | -22.96283 | -43.20788 | 2986 ft | 156 kts | 33° |
| 2026-04-30 14:34 | -22.95387 | -43.20124 | 2981 ft | 156 kts | 33° |
| 2026-04-30 14:34 | -22.94495 | -43.19461 | 2977 ft | 154 kts | 33° |
| 2026-04-30 14:34 | -22.93621 | -43.18807 | 2983 ft | 156 kts | 34° |
| 2026-04-30 14:34 | -22.92676 | -43.18244 | 2980 ft | 156 kts | 12° |
| 2026-04-30 14:35 | -22.90875 | -43.18306 | 2985 ft | 155 kts | 353° |
| 2026-04-30 14:35 | -22.89449 | -43.18403 | 2990 ft | 156 kts | 356° |
| 2026-04-30 14:35 | -22.88390 | -43.18555 | 2973 ft | 150 kts | 337° |
| 2026-04-30 14:36 | -22.87640 | -43.19248 | 2934 ft | 139 kts | 302° |
| 2026-04-30 14:36 | -22.87229 | -43.20186 | 2808 ft | 133 kts | 294° |
| 2026-04-30 14:36 | -22.86844 | -43.21094 | 2653 ft | 134 kts | 296° |
| 2026-04-30 14:36 | -22.86471 | -43.22006 | 2516 ft | 131 kts | 291° |
| 2026-04-30 14:37 | -22.86115 | -43.22911 | 2295 ft | 133 kts | 294° |
| 2026-04-30 14:37 | -22.85717 | -43.23818 | 2094 ft | 133 kts | 297° |
| 2026-04-30 14:37 | -22.85295 | -43.24665 | 2064 ft | 119 kts | 298° |
| 2026-04-30 14:37 | -22.84913 | -43.25411 | 2017 ft | 107 kts | 300° |
| 2026-04-30 14:38 | -22.84542 | -43.26069 | 1858 ft | 98 kts | 303° |
| 2026-04-30 14:38 | -22.84164 | -43.26662 | 1665 ft | 96 kts | 306° |
| 2026-04-30 14:38 | -22.83745 | -43.27229 | 1482 ft | 95 kts | 311° |
| 2026-04-30 14:38 | -22.83280 | -43.27729 | 1307 ft | 95 kts | 320° |
| 2026-04-30 14:39 | -22.82762 | -43.28142 | 1143 ft | 92 kts | 330° |
| 2026-04-30 14:39 | -22.82160 | -43.28371 | 1006 ft | 89 kts | 355° |
| 2026-04-30 14:39 | -22.81572 | -43.28306 | 884 ft | 85 kts | 19° |
| 2026-04-30 14:40 | -22.80689 | -43.27537 | 511 ft | 86 kts | 70° |
| 2026-04-30 14:40 | -22.80521 | -43.26921 | 331 ft | 84 kts | 78° |
| 2026-04-30 14:40 | -22.80384 | -43.26315 | 229 ft | 82 kts | 79° |
| 2026-04-30 14:40 | -22.80239 | -43.25714 | 142 ft | 84 kts | 77° |
| 2026-04-30 14:41 | -22.80083 | -43.25104 | 36 ft | 83 kts | 77° |
| 2026-04-30 14:41 | -22.79953 | -43.24600 | 28 ft | 56 kts | 77° |
| 2026-04-30 14:41 | -22.79877 | -43.24330 | 27 ft | 26 kts | 77° |
| 2026-04-30 14:41 | -22.79886 | -43.24166 | 25 ft | 18 kts | 98° |
| 2026-04-30 14:42 | -22.79895 | -43.24051 | 23 ft | 16 kts | 92° |
| 2026-04-30 14:42 | -22.79904 | -43.23902 | 21 ft | 19 kts | 104° |
| 2026-04-30 14:42 | -22.79999 | -43.23849 | 20 ft | 16 kts | 174° |
| 2026-04-30 14:42 | -22.80085 | -43.23794 | 22 ft | 16 kts | 98° |
| 2026-04-30 14:43 | -22.80063 | -43.23662 | 24 ft | 20 kts | 76° |
| 2026-04-30 14:43 | -22.80017 | -43.23493 | 24 ft | 26 kts | 74° |
| 2026-04-30 14:43 | -22.79964 | -43.23295 | 24 ft | 28 kts | 74° |
| 2026-04-30 14:43 | -22.79915 | -43.23093 | 29 ft | 29 kts | 76° |
| 2026-04-30 14:44 | -22.79855 | -43.22878 | 33 ft | 30 kts | 75° |
| 2026-04-30 14:44 | -22.79814 | -43.22707 | 32 ft | 14 kts | 86° |
| 2026-04-30 14:44 | -22.79880 | -43.22652 | 32 ft | 13 kts | 164° |
| 2026-04-30 14:44 | -22.79958 | -43.22622 | 32 ft | 10 kts | 199° |
| 2026-04-30 14:45 | -22.79990 | -43.22699 | 32 ft | 12 kts | 247° |
| 2026-04-30 14:45 | -22.80008 | -43.22755 | 32 ft | 0 kts | 251° |